createdAt,value
2022-12-15T00:00:12.349Z,-5.11
2022-12-15T00:02:59.198Z,-5.09
2022-12-15T00:05:49.954Z,-5.04
2022-12-15T00:08:37.077Z,-5.10
2022-12-15T00:11:24.003Z,-5.05
2022-12-15T00:14:11.821Z,-5.04
2022-12-15T00:16:58.131Z,-5.11
2022-12-15T00:19:44.372Z,-5.10
2022-12-15T00:22:30.717Z,-5.09
2022-12-15T00:25:17.003Z,-5.02
2022-12-15T00:28:03.069Z,-4.98
2022-12-15T00:30:51.295Z,-4.96
2022-12-15T00:33:38.066Z,-4.93
2022-12-15T00:36:25.458Z,-4.88
2022-12-15T00:38:53.296Z,-4.87
2022-12-15T00:41:21.104Z,-4.88
2022-12-15T00:43:49.739Z,-4.89
2022-12-15T00:46:37.699Z,-4.88
2022-12-15T00:49:25.634Z,-4.95
2022-12-15T00:52:11.800Z,-4.98
2022-12-15T00:54:58.274Z,-4.96
2022-12-15T00:57:44.309Z,-4.99
2022-12-15T01:00:32.008Z,-5.08
2022-12-15T01:03:20.070Z,-5.05
2022-12-15T01:06:06.393Z,-5.03
2022-12-15T01:08:52.900Z,-4.99
2022-12-15T01:11:39.795Z,-4.96
2022-12-15T01:14:26.253Z,-4.92
2022-12-15T01:17:12.444Z,-4.89
2022-12-15T01:20:00.726Z,-4.84
2022-12-15T01:22:28.640Z,-4.83
2022-12-15T01:24:56.478Z,-4.89
2022-12-15T01:27:24.483Z,-4.86
2022-12-15T01:29:52.313Z,-4.77
2022-12-15T01:32:20.036Z,-4.64
2022-12-15T01:34:49.126Z,-4.49
2022-12-15T01:37:16.879Z,-4.39
2022-12-15T01:40:03.491Z,-4.27
2022-12-15T01:42:31.420Z,-4.12
2022-12-15T01:45:45.829Z,-4.05
2022-12-15T01:48:20.697Z,-4.03
2022-12-15T01:51:03.766Z,-4.03
2022-12-15T01:53:45.589Z,-4.00
2022-12-15T01:56:20.444Z,-3.86
2022-12-15T01:58:53.788Z,-3.75
2022-12-15T02:01:22.246Z,-3.69
2022-12-15T02:03:50.174Z,-3.58
2022-12-15T02:06:24.407Z,-3.44
2022-12-15T02:08:56.853Z,-3.36
2022-12-15T02:11:47.525Z,-3.31
2022-12-15T02:14:33.418Z,-3.28
2022-12-15T02:17:22.290Z,-3.27
2022-12-15T02:20:51.581Z,-3.21
2022-12-15T02:24:19.576Z,-3.19
2022-12-15T02:27:30.394Z,-3.20
2022-12-15T02:30:22.993Z,-3.14
2022-12-15T02:33:03.637Z,-3.06
2022-12-15T02:35:47.725Z,-3.03
2022-12-15T02:38:15.611Z,-2.98
2022-12-15T02:40:43.340Z,-2.95
2022-12-15T02:43:11.532Z,-2.92
2022-12-15T02:45:55.794Z,-2.96
2022-12-15T02:48:42.870Z,-2.88
2022-12-15T02:51:33.475Z,-2.85
2022-12-15T02:54:31.523Z,-2.81
2022-12-15T02:57:12.748Z,-2.87
2022-12-15T02:59:55.394Z,-2.85
2022-12-15T03:02:30.074Z,-2.91
2022-12-15T03:04:59.002Z,-2.86
2022-12-15T03:07:28.377Z,-2.83
2022-12-15T03:09:59.744Z,-2.83
2022-12-15T03:12:27.640Z,-2.84
2022-12-15T03:14:55.401Z,-2.81
2022-12-15T03:17:24.593Z,-2.74
2022-12-15T03:19:52.477Z,-2.70
2022-12-15T03:22:20.319Z,-2.70
2022-12-15T03:24:48.428Z,-2.64
2022-12-15T03:27:16.238Z,-2.59
2022-12-15T03:29:44.067Z,-2.58
2022-12-15T03:32:11.927Z,-2.61
2022-12-15T03:34:41.837Z,-2.76
2022-12-15T03:37:09.594Z,-2.76
2022-12-15T03:39:37.409Z,-2.82
2022-12-15T03:42:05.385Z,-2.87
2022-12-15T03:44:33.267Z,-2.95
2022-12-15T03:47:03.585Z,-3.04
2022-12-15T03:49:31.768Z,-3.04
2022-12-15T03:52:01.061Z,-3.07
2022-12-15T03:54:28.856Z,-3.07
2022-12-15T03:56:56.562Z,-3.09
2022-12-15T03:59:24.484Z,-3.17
2022-12-15T04:01:52.368Z,-3.19
2022-12-15T04:04:20.233Z,-3.28
2022-12-15T04:06:48.093Z,-3.28
2022-12-15T04:09:17.161Z,-3.30
2022-12-15T04:11:44.902Z,-3.30
2022-12-15T04:14:12.942Z,-3.32
2022-12-15T04:16:40.709Z,-3.36
2022-12-15T04:19:26.928Z,-3.41
2022-12-15T04:21:54.800Z,-3.44
2022-12-15T04:24:42.621Z,-3.48
2022-12-15T04:27:29.201Z,-3.47
2022-12-15T04:30:16.014Z,-3.46
2022-12-15T04:33:03.252Z,-3.53
2022-12-15T04:35:52.637Z,-3.56
2022-12-15T04:38:50.352Z,-3.65
2022-12-15T04:41:41.568Z,-3.76
2022-12-15T04:44:30.314Z,-3.75
2022-12-15T04:47:17.352Z,-3.78
2022-12-15T04:50:04.024Z,-3.91
2022-12-15T04:52:50.637Z,-3.98
2022-12-15T04:55:37.235Z,-4.05
2022-12-15T04:58:26.935Z,-4.10
2022-12-15T05:01:16.424Z,-4.17
2022-12-15T05:04:03.087Z,-4.15
2022-12-15T05:06:49.296Z,-4.24
2022-12-15T05:09:35.783Z,-4.22
2022-12-15T05:12:22.615Z,-4.27
2022-12-15T05:15:10.479Z,-4.33
2022-12-15T05:17:57.010Z,-4.30
2022-12-15T05:20:43.238Z,-4.28
2022-12-15T05:23:30.234Z,-4.25
2022-12-15T05:26:17.672Z,-4.27
2022-12-15T05:29:03.692Z,-4.19
2022-12-15T05:31:51.723Z,-4.19
2022-12-15T05:34:21.560Z,-4.30
2022-12-15T05:36:50.059Z,-4.35
2022-12-15T05:39:19.761Z,-4.37
2022-12-15T05:41:48.068Z,-4.37
2022-12-15T05:44:15.813Z,-4.41
2022-12-15T05:46:45.753Z,-4.34
2022-12-15T05:49:17.046Z,-4.45
2022-12-15T05:51:47.461Z,-4.46
2022-12-15T05:54:18.644Z,-4.43
2022-12-15T05:56:50.034Z,-4.42
2022-12-15T05:59:19.455Z,-4.45
2022-12-15T06:01:48.793Z,-4.43
2022-12-15T06:04:16.822Z,-4.52
2022-12-15T06:06:44.847Z,-4.54
2022-12-15T06:09:12.642Z,-4.57
2022-12-15T06:11:40.474Z,-4.53
2022-12-15T06:14:09.444Z,-4.50
2022-12-15T06:16:44.225Z,-4.45
2022-12-15T06:19:20.239Z,-4.51
2022-12-15T06:21:48.594Z,-4.50
2022-12-15T06:24:16.344Z,-4.42
2022-12-15T06:26:44.545Z,-4.36
2022-12-15T06:29:13.265Z,-4.43
2022-12-15T06:31:42.552Z,-4.41
2022-12-15T06:34:14.178Z,-4.46
2022-12-15T06:36:44.093Z,-4.47
2022-12-15T06:39:15.005Z,-4.36
2022-12-15T06:41:43.247Z,-4.31
2022-12-15T06:44:15.031Z,-4.33
2022-12-15T06:46:44.165Z,-4.39
2022-12-15T06:49:12.256Z,-4.33
2022-12-15T06:51:41.310Z,-4.26
2022-12-15T06:54:11.183Z,-4.18
2022-12-15T06:56:39.628Z,-4.09
2022-12-15T06:59:08.414Z,-4.08
2022-12-15T07:01:36.481Z,-4.08
2022-12-15T07:04:05.436Z,-4.10
2022-12-15T07:06:37.141Z,-4.08
2022-12-15T07:09:07.959Z,-4.17
2022-12-15T07:11:37.215Z,-4.15
2022-12-15T07:14:05.352Z,-4.14
2022-12-15T07:16:33.194Z,-4.18
2022-12-15T07:19:01.008Z,-4.16
2022-12-15T07:21:28.947Z,-4.16
2022-12-15T07:23:57.928Z,-4.15
2022-12-15T07:26:26.346Z,-4.14
2022-12-15T07:28:56.344Z,-4.07
2022-12-15T07:31:24.594Z,-4.04
2022-12-15T07:33:54.250Z,-4.13
2022-12-15T07:36:22.401Z,-4.09
2022-12-15T07:38:51.466Z,-4.07
2022-12-15T07:41:20.457Z,-4.04
2022-12-15T07:43:49.066Z,-4.04
2022-12-15T07:46:19.606Z,-4.10
2022-12-15T07:48:50.536Z,-4.12
2022-12-15T07:51:20.259Z,-4.11
2022-12-15T07:53:49.808Z,-4.02
2022-12-15T07:56:20.881Z,-3.92
2022-12-15T07:58:49.520Z,-3.90
2022-12-15T08:01:18.968Z,-3.90
2022-12-15T08:03:49.056Z,-3.79
2022-12-15T08:06:17.094Z,-3.70
2022-12-15T08:08:50.802Z,-3.60
2022-12-15T08:11:21.955Z,-3.52
2022-12-15T08:14:02.678Z,-3.47
2022-12-15T08:16:34.364Z,-3.42
2022-12-15T08:19:03.223Z,-3.33
2022-12-15T08:21:31.779Z,-3.27
2022-12-15T08:24:02.766Z,-3.14
2022-12-15T08:26:31.493Z,-3.01
2022-12-15T08:29:31.985Z,-2.82
2022-12-15T08:31:53.047Z,-2.67
2022-12-15T08:34:21.191Z,-2.56
2022-12-15T08:36:49.436Z,-2.43
2022-12-15T08:39:17.593Z,-2.33
2022-12-15T08:41:45.455Z,-2.23
2022-12-15T08:44:13.466Z,-2.21
2022-12-15T08:46:41.260Z,-2.08
2022-12-15T08:49:10.810Z,-1.99
2022-12-15T08:51:38.522Z,-1.89
2022-12-15T08:54:06.334Z,-1.77
2022-12-15T08:56:35.717Z,-1.66
2022-12-15T08:59:04.054Z,-1.63
2022-12-15T09:01:33.464Z,-1.54
2022-12-15T09:04:04.195Z,-1.48
2022-12-15T09:06:36.674Z,-1.41
2022-12-15T09:09:08.083Z,-1.43
2022-12-15T09:11:35.886Z,-1.40
2022-12-15T09:14:04.335Z,-1.31
2022-12-15T09:16:32.260Z,-1.21
2022-12-15T09:19:00.495Z,-1.08
2022-12-15T09:21:30.702Z,-0.93
2022-12-15T09:24:02.500Z,-0.86
2022-12-15T09:26:33.005Z,-0.77
2022-12-15T09:29:01.945Z,-0.70
2022-12-15T09:31:33.165Z,-0.62
2022-12-15T09:34:01.991Z,-0.55
2022-12-15T09:36:32.356Z,-0.31
2022-12-15T09:39:02.634Z,-0.14
2022-12-15T09:41:33.690Z,-0.10
2022-12-15T09:44:06.393Z,0.08
2022-12-15T09:46:51.554Z,0.19
2022-12-15T09:49:38.888Z,0.37
2022-12-15T09:52:13.978Z,0.47
2022-12-15T09:54:44.764Z,0.60
2022-12-15T09:57:37.309Z,0.64
2022-12-15T10:00:21.052Z,0.70
2022-12-15T10:03:24.166Z,0.88
2022-12-15T10:06:27.082Z,1.14
2022-12-15T10:09:00.806Z,1.08
2022-12-15T10:11:50.967Z,1.24
2022-12-15T10:14:32.350Z,1.27
2022-12-15T10:17:17.091Z,1.40
2022-12-15T10:19:55.100Z,1.50
2022-12-15T10:22:27.068Z,1.58
2022-12-15T10:25:11.257Z,1.65
2022-12-15T10:28:22.320Z,1.91
2022-12-15T10:31:02.258Z,1.90
2022-12-15T10:33:36.472Z,1.96
2022-12-15T10:36:11.508Z,2.15
2022-12-15T10:38:43.524Z,2.11
2022-12-15T10:41:16.208Z,2.39
2022-12-15T10:43:50.300Z,2.44
2022-12-15T10:46:21.838Z,2.57
2022-12-15T10:48:54.189Z,2.42
2022-12-15T10:51:31.024Z,2.62
2022-12-15T10:54:11.074Z,2.64
2022-12-15T10:56:50.316Z,2.85
2022-12-15T10:59:29.389Z,2.92
2022-12-15T11:02:33.419Z,2.95
2022-12-15T11:05:05.959Z,2.79
2022-12-15T11:07:38.338Z,2.61
2022-12-15T11:10:17.823Z,2.64
2022-12-15T11:13:10.334Z,2.62
2022-12-15T11:15:45.806Z,2.83
2022-12-15T11:18:27.236Z,2.93
2022-12-15T11:21:04.454Z,2.98
2022-12-15T11:23:55.165Z,3.04
2022-12-15T11:26:36.472Z,3.03
2022-12-15T11:29:26.040Z,2.88
2022-12-15T11:31:58.913Z,3.01
2022-12-15T11:34:38.260Z,3.19
2022-12-15T11:37:36.866Z,3.50
2022-12-15T11:40:32.916Z,3.74
2022-12-15T11:43:41.527Z,3.60
2022-12-15T11:46:21.594Z,3.55
2022-12-15T11:49:28.235Z,3.80
2022-12-15T11:52:08.354Z,4.03
2022-12-15T11:54:47.106Z,4.20
2022-12-15T11:57:51.192Z,4.26
2022-12-15T12:00:21.520Z,4.14
2022-12-15T12:03:04.468Z,4.14
2022-12-15T12:05:50.573Z,4.21
2022-12-15T12:08:54.305Z,4.30
2022-12-15T12:11:32.782Z,4.30
2022-12-15T12:14:29.349Z,4.33
2022-12-15T12:17:06.728Z,4.04
2022-12-15T12:19:43.477Z,4.08
2022-12-15T12:22:24.408Z,3.95
2022-12-15T12:24:59.666Z,4.16
2022-12-15T12:27:39.467Z,4.48
2022-12-15T12:30:15.457Z,4.76
2022-12-15T12:32:55.175Z,4.76
2022-12-15T12:35:33.607Z,4.72
2022-12-15T12:38:05.204Z,4.55
2022-12-15T12:40:55.854Z,4.75
2022-12-15T12:43:33.806Z,5.32
2022-12-15T12:46:15.357Z,5.58
2022-12-15T12:48:53.795Z,5.84
2022-12-15T12:51:28.810Z,5.94
2022-12-15T12:54:00.100Z,5.85
2022-12-15T12:56:37.670Z,5.69
2022-12-15T12:59:37.575Z,5.57
2022-12-15T13:02:50.546Z,5.29
2022-12-15T13:05:33.234Z,5.37
2022-12-15T13:08:44.595Z,5.50
2022-12-15T13:11:57.325Z,5.47
2022-12-15T13:14:44.702Z,5.52
2022-12-15T13:17:27.482Z,5.62
2022-12-15T13:20:20.921Z,5.47
2022-12-15T13:22:49.593Z,5.51
2022-12-15T13:25:39.773Z,5.31
2022-12-15T13:28:31.150Z,5.02
2022-12-15T13:31:44.194Z,4.86
2022-12-15T13:34:19.483Z,4.62
2022-12-15T13:36:55.547Z,4.45
2022-12-15T13:39:57.563Z,4.28
2022-12-15T13:42:39.102Z,4.10
2022-12-15T13:45:48.659Z,3.84
2022-12-15T13:48:39.655Z,3.63
2022-12-15T13:51:32.891Z,3.60
2022-12-15T13:54:11.846Z,3.94
2022-12-15T13:56:52.802Z,4.12
2022-12-15T13:59:37.404Z,3.96
2022-12-15T14:02:24.921Z,4.00
2022-12-15T14:05:14.764Z,4.09
2022-12-15T14:07:54.316Z,4.01
2022-12-15T14:10:27.590Z,3.88
2022-12-15T14:12:58.350Z,3.67
2022-12-15T14:15:31.534Z,3.53
2022-12-15T14:18:02.031Z,3.33
2022-12-15T14:20:40.561Z,3.32
2022-12-15T14:23:19.187Z,3.17
2022-12-15T14:26:03.823Z,2.99
2022-12-15T14:28:34.687Z,2.80
2022-12-15T14:31:07.088Z,2.56
2022-12-15T14:33:40.313Z,2.46
2022-12-15T14:36:13.165Z,2.35
2022-12-15T14:38:48.229Z,2.37
2022-12-15T14:41:22.337Z,2.27
2022-12-15T14:44:32.159Z,2.21
2022-12-15T14:46:47.642Z,2.18
2022-12-15T14:49:23.133Z,2.16
2022-12-15T14:51:59.887Z,2.07
2022-12-15T14:54:33.089Z,1.93
2022-12-15T14:57:03.787Z,1.94
2022-12-15T14:59:35.553Z,1.87
2022-12-15T15:02:19.689Z,1.68
2022-12-15T15:04:59.772Z,1.60
2022-12-15T15:07:32.466Z,1.61
2022-12-15T15:10:02.780Z,1.43
2022-12-15T15:12:44.254Z,1.27
2022-12-15T15:15:18.786Z,1.25
2022-12-15T15:17:52.402Z,1.18
2022-12-15T15:20:26.642Z,1.03
2022-12-15T15:23:18.108Z,0.82
2022-12-15T15:25:51.445Z,0.83
2022-12-15T15:28:25.500Z,0.79
2022-12-15T15:30:56.690Z,0.79
2022-12-15T15:33:25.928Z,0.69
2022-12-15T15:35:57.440Z,0.68
2022-12-15T15:38:32.380Z,0.49
2022-12-15T15:41:11.587Z,0.37
2022-12-15T15:43:39.343Z,0.34
2022-12-15T15:46:13.214Z,0.33
2022-12-15T15:48:46.046Z,0.07
2022-12-15T15:51:14.462Z,0.13
2022-12-15T15:53:44.026Z,0.06
2022-12-15T15:56:16.277Z,0.07
2022-12-15T15:58:44.420Z,0.06
2022-12-15T16:01:13.523Z,-0.05
2022-12-15T16:03:42.303Z,-0.10
2022-12-15T16:06:18.263Z,-0.32
2022-12-15T16:08:51.117Z,-0.22
2022-12-15T16:11:20.055Z,-0.19
2022-12-15T16:13:48.679Z,-0.26
2022-12-15T16:16:19.727Z,-0.33
2022-12-15T16:18:47.879Z,-0.33
2022-12-15T16:21:17.813Z,-0.46
2022-12-15T16:23:49.416Z,-0.57
2022-12-15T16:26:27.062Z,-0.67
2022-12-15T16:28:55.183Z,-0.63
2022-12-15T16:31:35.453Z,-0.51
2022-12-15T16:34:06.913Z,-0.49
2022-12-15T16:36:35.125Z,-0.51
2022-12-15T16:39:05.455Z,-0.50
2022-12-15T16:41:33.542Z,-0.47
2022-12-15T16:44:01.600Z,-0.53
2022-12-15T16:46:29.580Z,-0.54
2022-12-15T16:48:57.443Z,-0.57
2022-12-15T16:51:39.195Z,-0.70
2022-12-15T16:54:17.947Z,-0.81
2022-12-15T16:56:45.847Z,-0.88
2022-12-15T16:59:32.422Z,-0.78
2022-12-15T17:02:01.983Z,-0.84
2022-12-15T17:04:29.968Z,-0.91
2022-12-15T17:06:57.979Z,-1.07
2022-12-15T17:09:27.714Z,-1.06
2022-12-15T17:11:57.235Z,-1.03
2022-12-15T17:14:24.994Z,-1.02
2022-12-15T17:16:52.650Z,-1.09
2022-12-15T17:19:21.509Z,-1.08
2022-12-15T17:21:53.368Z,-1.13
2022-12-15T17:24:22.542Z,-1.09
2022-12-15T17:26:51.715Z,-1.21
2022-12-15T17:29:25.163Z,-1.30
2022-12-15T17:31:53.044Z,-1.35
2022-12-15T17:34:30.063Z,-1.30
2022-12-15T17:37:02.141Z,-1.38
2022-12-15T17:39:33.988Z,-1.41
2022-12-15T17:42:05.805Z,-1.35
2022-12-15T17:44:38.362Z,-1.24
2022-12-15T17:47:08.873Z,-1.31
2022-12-15T17:49:38.929Z,-1.36
2022-12-15T17:52:22.792Z,-1.43
2022-12-15T17:54:51.976Z,-1.44
2022-12-15T17:57:21.258Z,-1.48
2022-12-15T17:59:48.935Z,-1.50
2022-12-15T18:02:17.188Z,-1.42
2022-12-15T18:04:45.308Z,-1.40
2022-12-15T18:07:19.360Z,-1.46
2022-12-15T18:09:48.269Z,-1.40
2022-12-15T18:12:19.397Z,-1.41
2022-12-15T18:14:49.189Z,-1.41
2022-12-15T18:17:17.147Z,-1.40
2022-12-15T18:19:45.362Z,-1.42
2022-12-15T18:22:15.353Z,-1.54
2022-12-15T18:24:43.462Z,-1.60
2022-12-15T18:27:23.202Z,-1.68
2022-12-15T18:29:52.918Z,-1.61
2022-12-15T18:32:25.353Z,-1.61
2022-12-15T18:34:53.913Z,-1.64
2022-12-15T18:37:28.051Z,-1.61
2022-12-15T18:39:59.486Z,-1.61
2022-12-15T18:42:31.904Z,-1.57
2022-12-15T18:45:04.923Z,-1.57
2022-12-15T18:47:33.697Z,-1.59
2022-12-15T18:50:01.463Z,-1.55
2022-12-15T18:52:34.422Z,-1.58
2022-12-15T18:55:03.029Z,-1.56
2022-12-15T18:57:33.516Z,-1.67
2022-12-15T19:00:17.756Z,-1.67
2022-12-15T19:02:45.877Z,-1.70
2022-12-15T19:05:29.180Z,-1.72
2022-12-15T19:08:01.535Z,-1.69
2022-12-15T19:10:33.910Z,-1.69
2022-12-15T19:13:01.933Z,-1.70
2022-12-15T19:15:31.023Z,-1.76
2022-12-15T19:18:17.871Z,-1.75
2022-12-15T19:21:04.650Z,-1.72
2022-12-15T19:23:33.067Z,-1.77
2022-12-15T19:26:01.199Z,-1.75
2022-12-15T19:28:29.322Z,-1.73
2022-12-15T19:30:58.736Z,-1.73
2022-12-15T19:33:26.625Z,-1.73
2022-12-15T19:35:57.272Z,-1.71
2022-12-15T19:38:30.260Z,-1.64
2022-12-15T19:41:00.083Z,-1.73
2022-12-15T19:43:28.027Z,-1.84
2022-12-15T19:45:55.928Z,-1.89
2022-12-15T19:48:25.191Z,-1.84
2022-12-15T19:50:54.967Z,-1.76
2022-12-15T19:53:27.128Z,-1.87
2022-12-15T19:55:58.097Z,-1.84
2022-12-15T19:58:30.110Z,-1.84
2022-12-15T20:01:01.188Z,-1.80
2022-12-15T20:03:32.312Z,-1.78
2022-12-15T20:06:02.728Z,-1.78
2022-12-15T20:08:35.313Z,-1.74
2022-12-15T20:11:03.600Z,-1.86
2022-12-15T20:13:31.989Z,-2.01
2022-12-15T20:16:00.285Z,-2.06
2022-12-15T20:18:28.115Z,-2.06
2022-12-15T20:20:59.177Z,-2.04
2022-12-15T20:23:29.484Z,-2.05
2022-12-15T20:25:57.940Z,-2.15
2022-12-15T20:28:29.156Z,-2.25
2022-12-15T20:30:58.152Z,-2.20
2022-12-15T20:33:25.867Z,-2.17
2022-12-15T20:35:54.232Z,-2.12
2022-12-15T20:38:31.739Z,-2.05
2022-12-15T20:41:01.682Z,-1.99
2022-12-15T20:43:32.425Z,-2.01
2022-12-15T20:46:06.806Z,-2.09
2022-12-15T20:48:36.672Z,-2.09
2022-12-15T20:51:09.561Z,-2.10
2022-12-15T20:53:39.198Z,-2.18
2022-12-15T20:56:08.129Z,-2.31
2022-12-15T20:58:39.142Z,-2.25
2022-12-15T21:01:18.197Z,-2.14
2022-12-15T21:03:47.399Z,-2.20
2022-12-15T21:06:15.151Z,-2.19
2022-12-15T21:08:44.750Z,-2.24
2022-12-15T21:11:18.314Z,-2.26
2022-12-15T21:13:49.402Z,-2.31
2022-12-15T21:16:20.532Z,-2.39
2022-12-15T21:21:43.220Z,-2.49
2022-12-15T21:24:16.789Z,-2.55
2022-12-15T21:26:46.006Z,-2.52
2022-12-15T21:29:16.744Z,-2.51
2022-12-15T21:31:45.428Z,-2.53
2022-12-15T21:34:14.169Z,-2.56
2022-12-15T21:36:46.401Z,-2.56
2022-12-15T21:39:32.877Z,-2.58
2022-12-15T21:42:05.607Z,-2.52
2022-12-15T21:44:33.461Z,-2.49
2022-12-15T21:47:01.209Z,-2.47
2022-12-15T21:49:29.056Z,-2.49
2022-12-15T21:52:00.787Z,-2.57
2022-12-15T21:54:35.117Z,-2.56
2022-12-15T21:57:03.413Z,-2.55
2022-12-15T21:59:32.723Z,-2.57
2022-12-15T22:02:01.687Z,-2.63
2022-12-15T22:04:34.162Z,-2.66
2022-12-15T22:07:02.306Z,-2.74
2022-12-15T22:09:31.374Z,-2.71
2022-12-15T22:11:59.116Z,-2.65
2022-12-15T22:14:29.790Z,-2.64
2022-12-15T22:16:58.944Z,-2.64
2022-12-15T22:19:27.302Z,-2.69
2022-12-15T22:21:55.108Z,-2.67
2022-12-15T22:24:22.822Z,-2.66
2022-12-15T22:26:52.087Z,-2.67
2022-12-15T22:29:22.601Z,-2.68
2022-12-15T22:31:51.767Z,-2.64
2022-12-15T22:34:22.820Z,-2.61
2022-12-15T22:36:50.744Z,-2.63
2022-12-15T22:39:19.781Z,-2.62
2022-12-15T22:41:51.366Z,-2.69
2022-12-15T22:44:24.812Z,-2.66
2022-12-15T22:46:56.891Z,-2.76
2022-12-15T22:49:34.165Z,-2.84
2022-12-15T22:52:02.595Z,-2.72
2022-12-15T22:54:32.026Z,-2.65
2022-12-15T22:57:06.361Z,-2.60
2022-12-15T22:59:43.376Z,-2.55
2022-12-15T23:02:11.789Z,-2.53
2022-12-15T23:04:40.737Z,-2.48
2022-12-15T23:07:12.287Z,-2.49
2022-12-15T23:09:40.220Z,-2.51
2022-12-15T23:12:09.312Z,-2.53
2022-12-15T23:14:55.990Z,-2.55
2022-12-15T23:17:23.829Z,-2.63
2022-12-15T23:19:51.478Z,-2.60
2022-12-15T23:22:19.299Z,-2.60
2022-12-15T23:24:46.999Z,-2.66
2022-12-15T23:27:16.085Z,-2.67
2022-12-15T23:29:43.872Z,-2.61
2022-12-15T23:32:11.717Z,-2.65
2022-12-15T23:34:39.447Z,-2.82
2022-12-15T23:37:07.309Z,-2.84
2022-12-15T23:39:36.075Z,-2.93
2022-12-15T23:42:05.452Z,-2.89
2022-12-15T23:44:37.167Z,-2.87
2022-12-15T23:47:05.123Z,-2.88
2022-12-15T23:49:32.843Z,-2.85
2022-12-15T23:52:00.619Z,-2.86
2022-12-15T23:54:28.288Z,-2.89
2022-12-15T23:56:56.007Z,-2.84
2022-12-15T23:59:23.741Z,-2.83
